sensor_id;sensor_type;location;lat;lon;timestamp;pressure;altitude;pressure_sealevel;temperature;humidity
14293;BME280;62290;59.420;17.842;2023-03-21T00:00:52;100792.34;;;25.93;20.41
14293;BME280;62290;59.420;17.842;2023-03-21T00:03:21;100806.53;;;26.04;20.74
14293;BME280;62290;59.420;17.842;2023-03-21T00:05:49;100791.22;;;25.95;20.47
14293;BME280;62290;59.420;17.842;2023-03-21T00:08:22;100819.19;;;26.13;20.90
14293;BME280;62290;59.420;17.842;2023-03-21T00:10:54;100820.19;;;26.12;20.42
14293;BME280;62290;59.420;17.842;2023-03-21T00:13:23;100812.09;;;26.12;20.72
14293;BME280;62290;59.420;17.842;2023-03-21T00:15:52;100769.19;;;25.90;20.67
14293;BME280;62290;59.420;17.842;2023-03-21T00:18:36;100805.81;;;26.12;20.86
14293;BME280;62290;59.420;17.842;2023-03-21T00:21:10;100810.94;;;26.15;20.80
14293;BME280;62290;59.420;17.842;2023-03-21T00:24:03;100782.09;;;26.06;20.51
14293;BME280;62290;59.420;17.842;2023-03-21T00:26:31;100792.16;;;26.13;20.96
14293;BME280;62290;59.420;17.842;2023-03-21T00:28:59;100796.59;;;26.14;20.64
14293;BME280;62290;59.420;17.842;2023-03-21T00:31:27;100790.16;;;26.15;20.85
14293;BME280;62290;59.420;17.842;2023-03-21T00:33:55;100797.28;;;26.16;20.60
14293;BME280;62290;59.420;17.842;2023-03-21T00:36:23;100799.00;;;26.17;20.66
14293;BME280;62290;59.420;17.842;2023-03-21T00:38:53;100801.53;;;26.19;20.34
14293;BME280;62290;59.420;17.842;2023-03-21T00:41:22;100801.53;;;26.19;20.30
14293;BME280;62290;59.420;17.842;2023-03-21T00:44:08;100789.88;;;26.18;20.57
14293;BME280;62290;59.420;17.842;2023-03-21T00:46:39;100802.53;;;26.18;20.28
14293;BME280;62290;59.420;17.842;2023-03-21T00:49:22;100804.41;;;26.17;20.19
14293;BME280;62290;59.420;17.842;2023-03-21T00:51:50;100795.44;;;26.17;20.63
14293;BME280;62290;59.420;17.842;2023-03-21T00:54:23;100794.59;;;26.16;20.19
14293;BME280;62290;59.420;17.842;2023-03-21T00:56:53;100791.72;;;26.18;20.39
14293;BME280;62290;59.420;17.842;2023-03-21T00:59:21;100775.13;;;26.03;20.54
14293;BME280;62290;59.420;17.842;2023-03-21T01:01:49;100797.28;;;26.16;20.58
14293;BME280;62290;59.420;17.842;2023-03-21T01:04:20;100801.81;;;26.16;20.18
14293;BME280;62290;59.420;17.842;2023-03-21T01:06:52;100800.84;;;26.17;20.33
14293;BME280;62290;59.420;17.842;2023-03-21T01:09:22;100799.13;;;26.16;20.17
14293;BME280;62290;59.420;17.842;2023-03-21T01:11:52;100795.44;;;26.17;20.10
14293;BME280;62290;59.420;17.842;2023-03-21T01:14:21;100802.69;;;26.16;20.14
14293;BME280;62290;59.420;17.842;2023-03-21T01:16:52;100806.38;;;26.15;20.35
14293;BME280;62290;59.420;17.842;2023-03-21T01:19:22;100817.19;;;26.15;20.37
14293;BME280;62290;59.420;17.842;2023-03-21T01:22:10;100802.25;;;26.11;19.99
14293;BME280;62290;59.420;17.842;2023-03-21T01:24:38;100808.38;;;26.13;20.06
14293;BME280;62290;59.420;17.842;2023-03-21T01:27:21;100817.50;;;26.12;20.23
14293;BME280;62290;59.420;17.842;2023-03-21T01:29:49;100819.44;;;26.10;19.96
14293;BME280;62290;59.420;17.842;2023-03-21T01:32:17;100827.53;;;26.10;20.31
14293;BME280;62290;59.420;17.842;2023-03-21T01:34:46;100820.47;;;26.09;19.83
14293;BME280;62290;59.420;17.842;2023-03-21T01:37:14;100823.16;;;26.09;19.93
14293;BME280;62290;59.420;17.842;2023-03-21T01:39:46;100826.84;;;26.08;20.07
14293;BME280;62290;59.420;17.842;2023-03-21T01:42:15;100819.72;;;26.07;19.70
14293;BME280;62290;59.420;17.842;2023-03-21T01:44:55;100827.84;;;26.07;20.11
14293;BME280;62290;59.420;17.842;2023-03-21T01:47:31;100818.03;;;26.06;19.85
14293;BME280;62290;59.420;17.842;2023-03-21T01:50:18;100822.59;;;26.06;19.95
14293;BME280;62290;59.420;17.842;2023-03-21T01:52:59;100818.03;;;26.06;20.13
14293;BME280;62290;59.420;17.842;2023-03-21T01:55:32;100816.19;;;26.07;19.75
14293;BME280;62290;59.420;17.842;2023-03-21T01:58:09;100816.34;;;26.05;20.08
14293;BME280;62290;59.420;17.842;2023-03-21T02:00:58;100821.72;;;26.05;20.16
14293;BME280;62290;59.420;17.842;2023-03-21T02:03:38;100820.88;;;26.05;19.96
14293;BME280;62290;59.420;17.842;2023-03-21T02:06:41;100817.34;;;26.04;19.76
14293;BME280;62290;59.420;17.842;2023-03-21T02:09:31;100801.44;;;25.92;20.10
14293;BME280;62290;59.420;17.842;2023-03-21T02:12:02;100829.84;;;26.05;19.82
14293;BME280;62290;59.420;17.842;2023-03-21T02:14:32;100825.28;;;26.06;20.12
14293;BME280;62290;59.420;17.842;2023-03-21T02:17:14;100828.84;;;26.06;20.15
14293;BME280;62290;59.420;17.842;2023-03-21T02:20:08;100830.53;;;26.07;20.12
14293;BME280;62290;59.420;17.842;2023-03-21T02:23:00;100828.84;;;26.06;19.99
14293;BME280;62290;59.420;17.842;2023-03-21T02:28:40;100837.94;;;26.05;19.90
14293;BME280;62290;59.420;17.842;2023-03-21T02:31:23;100837.94;;;26.05;19.74
14293;BME280;62290;59.420;17.842;2023-03-21T02:34:23;100835.53;;;26.02;19.87
14293;BME280;62290;59.420;17.842;2023-03-21T02:37:09;100832.81;;;26.02;20.08
14293;BME280;62290;59.420;17.842;2023-03-21T02:39:54;100841.66;;;26.04;19.59
14293;BME280;62290;59.420;17.842;2023-03-21T02:42:29;100833.56;;;26.04;20.04
14293;BME280;62290;59.420;17.842;2023-03-21T02:45:06;100832.69;;;26.04;19.61
14293;BME280;62290;59.420;17.842;2023-03-21T02:47:45;100830.97;;;26.03;19.61
14293;BME280;62290;59.420;17.842;2023-03-21T02:50:18;100824.59;;;26.04;19.51
14293;BME280;62290;59.420;17.842;2023-03-21T02:52:52;100836.25;;;26.04;19.71
14293;BME280;62290;59.420;17.842;2023-03-21T02:55:24;100841.66;;;26.04;19.60
14293;BME280;62290;59.420;17.842;2023-03-21T02:57:58;100837.25;;;26.03;20.09
14293;BME280;62290;59.420;17.842;2023-03-21T03:00:43;100839.09;;;26.03;19.52
14293;BME280;62290;59.420;17.842;2023-03-21T03:03:19;100841.66;;;26.04;19.92
14293;BME280;62290;59.420;17.842;2023-03-21T03:06:01;100822.50;;;25.88;20.15
14293;BME280;62290;59.420;17.842;2023-03-21T03:08:39;100824.91;;;25.91;20.17
14293;BME280;62290;59.420;17.842;2023-03-21T03:11:29;100827.63;;;25.91;20.09
14293;BME280;62290;59.420;17.842;2023-03-21T03:17:34;100842.34;;;26.06;19.68
14293;BME280;62290;59.420;17.842;2023-03-21T03:20:19;100830.28;;;26.01;19.56
14293;BME280;62290;59.420;17.842;2023-03-21T03:22:57;100844.19;;;26.06;20.06
14293;BME280;62290;59.420;17.842;2023-03-21T03:25:31;100844.19;;;26.06;19.51
14293;BME280;62290;59.420;17.842;2023-03-21T03:28:14;100785.44;;;25.71;20.11
14293;BME280;62290;59.420;17.842;2023-03-21T03:30:45;100849.59;;;26.06;19.96
14293;BME280;62290;59.420;17.842;2023-03-21T03:33:40;100848.75;;;26.05;19.97
14293;BME280;62290;59.420;17.842;2023-03-21T03:36:12;100855.84;;;26.06;19.85
14293;BME280;62290;59.420;17.842;2023-03-21T03:38:59;100852.47;;;26.04;19.56
14293;BME280;62290;59.420;17.842;2023-03-21T03:41:34;100853.28;;;26.05;19.81
14293;BME280;62290;59.420;17.842;2023-03-21T03:44:28;100851.59;;;26.04;20.06
14293;BME280;62290;59.420;17.842;2023-03-21T03:47:06;100860.56;;;26.04;19.89
14293;BME280;62290;59.420;17.842;2023-03-21T03:49:45;100864.25;;;26.03;20.12
14293;BME280;62290;59.420;17.842;2023-03-21T03:52:17;100858.69;;;26.05;19.62
14293;BME280;62290;59.420;17.842;2023-03-21T03:54:54;100859.72;;;26.04;19.75
14293;BME280;62290;59.420;17.842;2023-03-21T03:57:26;100831.59;;;25.87;19.62
14293;BME280;62290;59.420;17.842;2023-03-21T03:59:55;100864.09;;;26.05;20.04
14293;BME280;62290;59.420;17.842;2023-03-21T04:02:26;100861.38;;;26.05;19.88
14293;BME280;62290;59.420;17.842;2023-03-21T04:04:55;100860.41;;;26.06;20.03
14293;BME280;62290;59.420;17.842;2023-03-21T04:07:24;100863.97;;;26.06;20.09
14293;BME280;62290;59.420;17.842;2023-03-21T04:09:56;100858.16;;;26.01;20.11
14293;BME280;62290;59.420;17.842;2023-03-21T04:12:27;100858.16;;;26.01;19.53
14293;BME280;62290;59.420;17.842;2023-03-21T04:15:10;100858.56;;;26.06;20.07
14293;BME280;62290;59.420;17.842;2023-03-21T04:17:42;100856.84;;;26.05;19.86
14293;BME280;62290;59.420;17.842;2023-03-21T04:20:12;100857.69;;;26.06;19.71
14293;BME280;62290;59.420;17.842;2023-03-21T04:22:49;100862.13;;;26.07;19.92
14293;BME280;62290;59.420;17.842;2023-03-21T04:25:17;100865.66;;;26.07;20.03
14293;BME280;62290;59.420;17.842;2023-03-21T04:28:00;100862.13;;;26.07;19.71
14293;BME280;62290;59.420;17.842;2023-03-21T04:30:36;100868.34;;;26.07;19.95
14293;BME280;62290;59.420;17.842;2023-03-21T04:33:12;100878.16;;;26.08;19.88
14293;BME280;62290;59.420;17.842;2023-03-21T04:35:48;100877.19;;;26.09;19.68
14293;BME280;62290;59.420;17.842;2023-03-21T04:38:17;100880.88;;;26.08;19.96
14293;BME280;62290;59.420;17.842;2023-03-21T04:40:45;100877.31;;;26.08;19.92
14293;BME280;62290;59.420;17.842;2023-03-21T04:43:14;100874.75;;;26.06;19.62
14293;BME280;62290;59.420;17.842;2023-03-21T04:45:42;100880.00;;;26.08;20.03
14293;BME280;62290;59.420;17.842;2023-03-21T04:48:10;100885.28;;;26.09;19.97
14293;BME280;62290;59.420;17.842;2023-03-21T04:50:40;100890.69;;;26.09;19.96
14293;BME280;62290;59.420;17.842;2023-03-21T04:53:08;100893.38;;;26.09;19.62
14293;BME280;62290;59.420;17.842;2023-03-21T04:55:36;100897.22;;;26.07;19.47
14293;BME280;62290;59.420;17.842;2023-03-21T04:58:05;100905.16;;;26.08;19.63
14293;BME280;62290;59.420;17.842;2023-03-21T05:00:34;100891.66;;;26.08;19.96
14293;BME280;62290;59.420;17.842;2023-03-21T05:03:04;100899.94;;;26.07;19.46
14293;BME280;62290;59.420;17.842;2023-03-21T05:05:36;100899.06;;;26.06;19.51
14293;BME280;62290;59.420;17.842;2023-03-21T05:08:05;100904.47;;;26.06;19.93
14293;BME280;62290;59.420;17.842;2023-03-21T05:10:33;100905.34;;;26.07;19.59
14293;BME280;62290;59.420;17.842;2023-03-21T05:13:01;100899.06;;;26.06;19.91
14293;BME280;62290;59.420;17.842;2023-03-21T05:15:31;100896.38;;;26.06;19.91
14293;BME280;62290;59.420;17.842;2023-03-21T05:18:01;100896.38;;;26.06;19.95
14293;BME280;62290;59.420;17.842;2023-03-21T05:20:44;100891.66;;;26.08;19.88
14293;BME280;62290;59.420;17.842;2023-03-21T05:23:20;100897.94;;;26.09;20.01
14293;BME280;62290;59.420;17.842;2023-03-21T05:25:49;100890.28;;;26.04;19.69
14293;BME280;62290;59.420;17.842;2023-03-21T05:28:31;100894.22;;;26.10;19.57
14293;BME280;62290;59.420;17.842;2023-03-21T05:31:03;100879.31;;;26.06;19.52
14293;BME280;62290;59.420;17.842;2023-03-21T05:33:33;100887.81;;;26.11;19.47
14293;BME280;62290;59.420;17.842;2023-03-21T05:36:01;100909.44;;;26.11;19.61
14293;BME280;62290;59.420;17.842;2023-03-21T05:38:31;100879.72;;;26.11;19.47
14293;BME280;62290;59.420;17.842;2023-03-21T05:40:59;100891.25;;;26.13;19.87
14293;BME280;62290;59.420;17.842;2023-03-21T05:43:27;100891.13;;;26.14;19.48
14293;BME280;62290;59.420;17.842;2023-03-21T05:45:56;100889.53;;;26.12;19.85
14293;BME280;62290;59.420;17.842;2023-03-21T05:48:27;100885.84;;;26.13;19.45
14293;BME280;62290;59.420;17.842;2023-03-21T05:51:07;100888.44;;;26.14;19.87
14293;BME280;62290;59.420;17.842;2023-03-21T05:53:35;100899.22;;;26.14;19.73
14293;BME280;62290;59.420;17.842;2023-03-21T05:56:04;100889.41;;;26.13;19.50
14293;BME280;62290;59.420;17.842;2023-03-21T05:58:49;100894.81;;;26.13;19.43
14293;BME280;62290;59.420;17.842;2023-03-21T06:01:18;100892.25;;;26.12;19.49
14293;BME280;62290;59.420;17.842;2023-03-21T06:03:54;100908.31;;;26.13;19.43
14293;BME280;62290;59.420;17.842;2023-03-21T06:06:26;100905.63;;;26.13;19.59
14293;BME280;62290;59.420;17.842;2023-03-21T06:08:58;100905.63;;;26.13;19.56
14293;BME280;62290;59.420;17.842;2023-03-21T06:11:28;100911.03;;;26.13;19.41
14293;BME280;62290;59.420;17.842;2023-03-21T06:14:19;100890.56;;;26.01;19.45
14293;BME280;62290;59.420;17.842;2023-03-21T06:17:05;100907.72;;;26.10;19.59
14293;BME280;62290;59.420;17.842;2023-03-21T06:19:39;100908.56;;;26.10;19.61
14293;BME280;62290;59.420;17.842;2023-03-21T06:22:14;100907.88;;;26.08;19.44
14293;BME280;62290;59.420;17.842;2023-03-21T06:24:43;100909.34;;;26.12;19.85
14293;BME280;62290;59.420;17.842;2023-03-21T06:27:11;100912.88;;;26.13;19.39
14293;BME280;62290;59.420;17.842;2023-03-21T06:29:48;100911.03;;;26.13;19.94
14293;BME280;62290;59.420;17.842;2023-03-21T06:32:17;100882.31;;;25.93;19.60
14293;BME280;62290;59.420;17.842;2023-03-21T06:34:48;100916.41;;;26.13;19.76
14293;BME280;62290;59.420;17.842;2023-03-21T06:37:18;100908.19;;;26.15;19.77
14293;BME280;62290;59.420;17.842;2023-03-21T06:39:46;100903.63;;;26.15;19.73
14293;BME280;62290;59.420;17.842;2023-03-21T06:42:15;100916.13;;;26.16;19.48
14293;BME280;62290;59.420;17.842;2023-03-21T06:44:43;100905.34;;;26.16;19.93
14293;BME280;62290;59.420;17.842;2023-03-21T06:47:13;100911.72;;;26.15;19.80
14293;BME280;62290;59.420;17.842;2023-03-21T06:49:44;100887.25;;;26.07;19.93
14293;BME280;62290;59.420;17.842;2023-03-21T06:52:12;100914.13;;;26.18;19.75
14293;BME280;62290;59.420;17.842;2023-03-21T06:54:42;100915.00;;;26.19;19.82
14293;BME280;62290;59.420;17.842;2023-03-21T06:57:13;100916.72;;;26.20;19.54
14293;BME280;62290;59.420;17.842;2023-03-21T06:59:41;100916.38;;;26.23;19.84
14293;BME280;62290;59.420;17.842;2023-03-21T07:02:20;100928.91;;;26.24;19.85
14293;BME280;62290;59.420;17.842;2023-03-21T07:05:06;100923.34;;;26.25;19.73
14293;BME280;62290;59.420;17.842;2023-03-21T07:07:35;100917.94;;;26.25;19.51
14293;BME280;62290;59.420;17.842;2023-03-21T07:10:05;100931.44;;;26.25;19.57
14293;BME280;62290;59.420;17.842;2023-03-21T07:12:42;100926.06;;;26.25;19.43
14293;BME280;62290;59.420;17.842;2023-03-21T07:15:18;100919.81;;;26.25;19.45
14293;BME280;62290;59.420;17.842;2023-03-21T07:17:46;100884.25;;;26.10;19.49
14293;BME280;62290;59.420;17.842;2023-03-21T07:20:14;100925.22;;;26.25;19.49
14293;BME280;62290;59.420;17.842;2023-03-21T07:22:42;100921.50;;;26.26;19.49
14293;BME280;62290;59.420;17.842;2023-03-21T07:25:12;100912.41;;;26.27;19.90
14293;BME280;62290;59.420;17.842;2023-03-21T07:27:40;100914.25;;;26.26;19.92
14293;BME280;62290;59.420;17.842;2023-03-21T07:30:09;100916.97;;;26.26;19.40
14293;BME280;62290;59.420;17.842;2023-03-21T07:32:38;100914.25;;;26.26;19.67
14293;BME280;62290;59.420;17.842;2023-03-21T07:35:07;100919.94;;;26.23;19.82
14293;BME280;62290;59.420;17.842;2023-03-21T07:37:36;100934.03;;;26.27;19.83
14293;BME280;62290;59.420;17.842;2023-03-21T07:40:06;100931.16;;;26.28;19.51
14293;BME280;62290;59.420;17.842;2023-03-21T07:42:39;100938.44;;;26.28;19.97
14293;BME280;62290;59.420;17.842;2023-03-21T07:45:10;100948.22;;;26.29;19.90
14293;BME280;62290;59.420;17.842;2023-03-21T07:47:44;100948.22;;;26.29;19.49
14293;BME280;62290;59.420;17.842;2023-03-21T07:50:12;100943.69;;;26.29;19.94
14293;BME280;62290;59.420;17.842;2023-03-21T07:52:40;100945.41;;;26.30;19.88
14293;BME280;62290;59.420;17.842;2023-03-21T07:55:08;100948.09;;;26.30;19.47
14293;BME280;62290;59.420;17.842;2023-03-21T07:57:38;100944.38;;;26.31;19.64
14293;BME280;62290;59.420;17.842;2023-03-21T08:00:07;100947.78;;;26.33;19.87
14293;BME280;62290;59.420;17.842;2023-03-21T08:02:40;100944.81;;;26.36;19.72
14293;BME280;62290;59.420;17.842;2023-03-21T08:05:09;100945.38;;;26.40;20.10
14293;BME280;62290;59.420;17.842;2023-03-21T08:07:37;100947.91;;;26.42;19.94
14293;BME280;62290;59.420;17.842;2023-03-21T08:10:07;100954.03;;;26.44;20.19
14293;BME280;62290;59.420;17.842;2023-03-21T08:12:37;100956.75;;;26.44;20.16
14293;BME280;62290;59.420;17.842;2023-03-21T08:15:07;100952.56;;;26.49;19.74
14293;BME280;62290;59.420;17.842;2023-03-21T08:17:35;100947.91;;;26.51;19.66
14293;BME280;62290;59.420;17.842;2023-03-21T08:20:07;100916.22;;;26.34;20.07
14293;BME280;62290;59.420;17.842;2023-03-21T08:22:35;100952.00;;;26.55;19.71
14293;BME280;62290;59.420;17.842;2023-03-21T08:25:06;100956.13;;;26.59;19.75
14293;BME280;62290;59.420;17.842;2023-03-21T08:27:35;100947.00;;;26.60;20.10
14293;BME280;62290;59.420;17.842;2023-03-21T08:30:06;100957.69;;;26.62;19.80
14293;BME280;62290;59.420;17.842;2023-03-21T08:32:34;100948.44;;;26.64;19.96
14293;BME280;62290;59.420;17.842;2023-03-21T08:35:05;100944.88;;;26.64;20.12
14293;BME280;62290;59.420;17.842;2023-03-21T08:37:35;100945.56;;;26.66;19.63
14293;BME280;62290;59.420;17.842;2023-03-21T08:40:05;100946.25;;;26.68;20.00
14293;BME280;62290;59.420;17.842;2023-03-21T08:42:36;100948.84;;;26.69;19.78
14293;BME280;62290;59.420;17.842;2023-03-21T08:45:08;100947.69;;;26.72;19.71
14293;BME280;62290;59.420;17.842;2023-03-21T08:47:36;100947.53;;;26.73;20.05
14293;BME280;62290;59.420;17.842;2023-03-21T08:50:06;100943.66;;;26.76;19.84
14293;BME280;62290;59.420;17.842;2023-03-21T08:52:34;100949.06;;;26.76;19.95
14293;BME280;62290;59.420;17.842;2023-03-21T08:55:03;100941.69;;;26.78;19.86
14293;BME280;62290;59.420;17.842;2023-03-21T08:57:31;100946.09;;;26.79;19.55
14293;BME280;62290;59.420;17.842;2023-03-21T09:00:00;100946.28;;;26.77;19.68
14293;BME280;62290;59.420;17.842;2023-03-21T09:02:29;100944.78;;;26.83;19.71
14293;BME280;62290;59.420;17.842;2023-03-21T09:04:57;100948.06;;;26.86;19.76
14293;BME280;62290;59.420;17.842;2023-03-21T09:07:25;100949.06;;;26.85;20.03
14293;BME280;62290;59.420;17.842;2023-03-21T09:09:53;100946.78;;;26.90;19.95
14293;BME280;62290;59.420;17.842;2023-03-21T09:12:41;100957.28;;;26.93;20.11
14293;BME280;62290;59.420;17.842;2023-03-21T09:15:10;100946.31;;;26.95;20.06
14293;BME280;62290;59.420;17.842;2023-03-21T09:17:40;100940.22;;;26.93;20.15
14293;BME280;62290;59.420;17.842;2023-03-21T09:20:10;100937.91;;;26.98;20.12
14293;BME280;62290;59.420;17.842;2023-03-21T09:22:44;100932.81;;;26.95;20.25
14293;BME280;62290;59.420;17.842;2023-03-21T09:25:13;100934.88;;;27.01;20.25
14293;BME280;62290;59.420;17.842;2023-03-21T09:27:42;100919.41;;;26.93;20.24
14293;BME280;62290;59.420;17.842;2023-03-21T09:30:13;100941.69;;;27.05;20.18
14293;BME280;62290;59.420;17.842;2023-03-21T09:32:43;100940.72;;;27.06;20.17
14293;BME280;62290;59.420;17.842;2023-03-21T09:35:15;100940.72;;;27.06;20.33
14293;BME280;62290;59.420;17.842;2023-03-21T09:37:44;100936.28;;;27.05;20.19
14293;BME280;62290;59.420;17.842;2023-03-21T09:40:16;100932.59;;;27.06;20.42
14293;BME280;62290;59.420;17.842;2023-03-21T09:42:55;100932.44;;;27.08;20.33
14293;BME280;62290;59.420;17.842;2023-03-21T09:45:31;100936.00;;;27.08;20.37
14293;BME280;62290;59.420;17.842;2023-03-21T09:48:16;100930.59;;;27.08;20.19
14293;BME280;62290;59.420;17.842;2023-03-21T09:50:48;100925.47;;;27.05;20.44
14293;BME280;62290;59.420;17.842;2023-03-21T09:53:19;100897.06;;;26.91;20.22
14293;BME280;62290;59.420;17.842;2023-03-21T09:55:49;100936.53;;;27.12;20.12
14293;BME280;62290;59.420;17.842;2023-03-21T09:58:23;100939.09;;;27.13;20.34
14293;BME280;62290;59.420;17.842;2023-03-21T10:00:58;100939.09;;;27.13;20.53
14293;BME280;62290;59.420;17.842;2023-03-21T10:03:32;100940.78;;;27.14;20.38
14293;BME280;62290;59.420;17.842;2023-03-21T10:06:04;100940.66;;;27.16;20.40
14293;BME280;62290;59.420;17.842;2023-03-21T10:08:39;100938.81;;;27.16;20.32
14293;BME280;62290;59.420;17.842;2023-03-21T10:11:12;100939.63;;;27.17;20.41
14293;BME280;62290;59.420;17.842;2023-03-21T10:13:45;100934.22;;;27.17;20.04
14293;BME280;62290;59.420;17.842;2023-03-21T10:16:16;100933.22;;;27.18;19.89
14293;BME280;62290;59.420;17.842;2023-03-21T10:18:48;100931.22;;;27.20;20.19
14293;BME280;62290;59.420;17.842;2023-03-21T10:21:20;100934.78;;;27.20;20.00
14293;BME280;62290;59.420;17.842;2023-03-21T10:24:11;100933.78;;;27.21;20.02
14293;BME280;62290;59.420;17.842;2023-03-21T10:26:40;100927.50;;;27.21;20.12
14293;BME280;62290;59.420;17.842;2023-03-21T10:29:12;100856.72;;;26.80;19.97
14293;BME280;62290;59.420;17.842;2023-03-21T10:31:43;100927.91;;;27.26;19.96
14293;BME280;62290;59.420;17.842;2023-03-21T10:34:15;100920.47;;;27.28;20.13
14293;BME280;62290;59.420;17.842;2023-03-21T10:36:45;100898.91;;;27.18;20.06
14293;BME280;62290;59.420;17.842;2023-03-21T10:39:20;100921.03;;;27.31;20.88
14293;BME280;62290;59.420;17.842;2023-03-21T10:41:52;100927.44;;;27.30;21.30
14293;BME280;62290;59.420;17.842;2023-03-21T10:44:20;100908.66;;;27.29;22.08
14293;BME280;62290;59.420;17.842;2023-03-21T10:46:50;100914.28;;;27.35;22.02
14293;BME280;62290;59.420;17.842;2023-03-21T10:49:21;100914.16;;;27.37;22.03
14293;BME280;62290;59.420;17.842;2023-03-21T10:51:51;100914.28;;;27.35;22.02
14293;BME280;62290;59.420;17.842;2023-03-21T10:54:25;100912.88;;;27.41;21.45
14293;BME280;62290;59.420;17.842;2023-03-21T10:56:57;100912.72;;;27.42;21.60
14293;BME280;62290;59.420;17.842;2023-03-21T10:59:32;100908.16;;;27.43;21.31
14293;BME280;62290;59.420;17.842;2023-03-21T11:02:03;100895.78;;;27.40;21.23
14293;BME280;62290;59.420;17.842;2023-03-21T11:04:35;100899.19;;;27.42;20.93
14293;BME280;62290;59.420;17.842;2023-03-21T11:07:04;100904.44;;;27.44;21.30
14293;BME280;62290;59.420;17.842;2023-03-21T11:09:45;100898.03;;;27.45;20.94
14293;BME280;62290;59.420;17.842;2023-03-21T11:12:14;100901.75;;;27.44;20.83
14293;BME280;62290;59.420;17.842;2023-03-21T11:14:44;100905.13;;;27.46;20.88
14293;BME280;62290;59.420;17.842;2023-03-21T11:17:22;100896.03;;;27.47;20.60
14293;BME280;62290;59.420;17.842;2023-03-21T11:19:56;100897.88;;;27.46;20.71
14293;BME280;62290;59.420;17.842;2023-03-21T11:22:27;100896.03;;;27.47;20.32
14293;BME280;62290;59.420;17.842;2023-03-21T11:24:58;100889.56;;;27.48;20.65
14293;BME280;62290;59.420;17.842;2023-03-21T11:27:27;100895.84;;;27.48;20.38
14293;BME280;62290;59.420;17.842;2023-03-21T11:29:57;100891.59;;;27.46;20.52
14293;BME280;62290;59.420;17.842;2023-03-21T11:32:31;100884.03;;;27.49;20.54
14293;BME280;62290;59.420;17.842;2023-03-21T11:35:04;100869.63;;;27.49;20.37
14293;BME280;62290;59.420;17.842;2023-03-21T11:37:37;100877.06;;;27.47;20.46
14293;BME280;62290;59.420;17.842;2023-03-21T11:40:18;100878.63;;;27.49;20.34
14293;BME280;62290;59.420;17.842;2023-03-21T11:42:48;100853.59;;;27.38;20.27
14293;BME280;62290;59.420;17.842;2023-03-21T11:45:19;100872.50;;;27.47;20.27
14293;BME280;62290;59.420;17.842;2023-03-21T11:47:49;100885.03;;;27.48;20.32
14293;BME280;62290;59.420;17.842;2023-03-21T11:50:24;100886.72;;;27.49;20.25
14293;BME280;62290;59.420;17.842;2023-03-21T11:53:18;100880.47;;;27.49;20.46
14293;BME280;62290;59.420;17.842;2023-03-21T11:56:03;100874.19;;;27.48;20.26
14293;BME280;62290;59.420;17.842;2023-03-21T11:58:46;100864.41;;;27.47;20.23
14293;BME280;62290;59.420;17.842;2023-03-21T12:01:23;100870.63;;;27.48;20.17
14293;BME280;62290;59.420;17.842;2023-03-21T12:04:02;100878.75;;;27.48;20.34
14293;BME280;62290;59.420;17.842;2023-03-21T12:06:35;100877.94;;;27.47;20.34
14293;BME280;62290;59.420;17.842;2023-03-21T12:09:12;100868.94;;;27.47;20.52
14293;BME280;62290;59.420;17.842;2023-03-21T12:11:55;100867.41;;;27.44;20.19
14293;BME280;62290;59.420;17.842;2023-03-21T12:14:30;100870.13;;;27.44;20.43
14293;BME280;62290;59.420;17.842;2023-03-21T12:17:08;100861.13;;;27.44;20.08
14293;BME280;62290;59.420;17.842;2023-03-21T12:19:56;100856.59;;;27.44;20.25
14293;BME280;62290;59.420;17.842;2023-03-21T12:22:40;100860.16;;;27.45;20.21
14293;BME280;62290;59.420;17.842;2023-03-21T12:25:14;100856.59;;;27.44;20.22
14293;BME280;62290;59.420;17.842;2023-03-21T12:27:51;100854.72;;;27.45;20.10
14293;BME280;62290;59.420;17.842;2023-03-21T12:30:32;100856.59;;;27.44;20.03
14293;BME280;62290;59.420;17.842;2023-03-21T12:33:30;100853.88;;;27.44;19.92
14293;BME280;62290;59.420;17.842;2023-03-21T12:36:10;100846.59;;;27.45;19.93
14293;BME280;62290;59.420;17.842;2023-03-21T12:38:51;100843.19;;;27.43;19.95
14293;BME280;62290;59.420;17.842;2023-03-21T12:41:27;100838.69;;;27.34;19.84
14293;BME280;62290;59.420;17.842;2023-03-21T12:44:02;100859.28;;;27.44;19.59
14293;BME280;62290;59.420;17.842;2023-03-21T12:46:33;100851.16;;;27.44;19.73
14293;BME280;62290;59.420;17.842;2023-03-21T12:49:07;100855.56;;;27.45;19.80
14293;BME280;62290;59.420;17.842;2023-03-21T12:51:38;100851.16;;;27.44;19.50
14293;BME280;62290;59.420;17.842;2023-03-21T12:54:15;100851.31;;;27.43;19.60
14293;BME280;62290;59.420;17.842;2023-03-21T12:56:49;100844.91;;;27.44;19.49
14293;BME280;62290;59.420;17.842;2023-03-21T12:59:24;100847.44;;;27.45;19.57
14293;BME280;62290;59.420;17.842;2023-03-21T13:01:57;100843.72;;;27.46;19.21
14293;BME280;62290;59.420;17.842;2023-03-21T13:04:40;100830.88;;;27.48;19.29
14293;BME280;62290;59.420;17.842;2023-03-21T13:07:14;100832.06;;;27.46;19.45
14293;BME280;62290;59.420;17.842;2023-03-21T13:09:47;100822.09;;;27.46;19.54
14293;BME280;62290;59.420;17.842;2023-03-21T13:12:40;100820.06;;;27.48;19.43
14293;BME280;62290;59.420;17.842;2023-03-21T13:18:10;100805.66;;;27.48;19.31
14293;BME280;62290;59.420;17.842;2023-03-21T13:20:43;100803.69;;;27.50;19.15
14293;BME280;62290;59.420;17.842;2023-03-21T13:23:13;100792.09;;;27.40;19.04